createdAt,value
2023-10-10T00:00:40.202Z,0.00
2023-10-10T00:01:40.886Z,0.00
2023-10-10T00:02:41.688Z,0.00
2023-10-10T00:03:42.492Z,0.00
2023-10-10T00:04:43.134Z,0.00
2023-10-10T00:05:44.196Z,0.00
2023-10-10T00:06:44.441Z,0.00
2023-10-10T00:07:45.070Z,0.00
2023-10-10T00:08:45.779Z,0.00
2023-10-10T00:09:46.485Z,0.00
2023-10-10T00:10:47.704Z,0.00
2023-10-10T00:11:47.917Z,0.00
2023-10-10T00:12:48.629Z,0.00
2023-10-10T00:13:49.319Z,0.00
2023-10-10T00:14:50.026Z,0.00
2023-10-10T00:15:50.878Z,0.00
2023-10-10T00:16:51.590Z,0.00
2023-10-10T00:17:52.312Z,0.00
2023-10-10T00:18:52.975Z,0.00
2023-10-10T00:19:53.710Z,0.00
2023-10-10T00:20:54.686Z,0.00
2023-10-10T00:21:54.938Z,0.00
2023-10-10T00:22:55.667Z,0.00
2023-10-10T00:23:56.303Z,0.00
2023-10-10T00:24:57.012Z,0.00
2023-10-10T00:25:58.189Z,0.00
2023-10-10T00:26:58.395Z,0.00
2023-10-10T00:27:59.107Z,0.00
2023-10-10T00:28:59.842Z,0.00
2023-10-10T00:30:00.524Z,0.00
2023-10-10T00:31:01.726Z,0.00
2023-10-10T00:32:01.938Z,0.00
2023-10-10T00:33:02.607Z,0.00
2023-10-10T00:34:03.304Z,0.00
2023-10-10T00:35:04.072Z,0.00
2023-10-10T00:36:05.189Z,0.00
2023-10-10T00:37:05.443Z,0.00
2023-10-10T00:38:06.122Z,0.00
2023-10-10T00:39:06.792Z,0.00
2023-10-10T00:40:07.492Z,0.00
2023-10-10T00:41:08.739Z,0.00
2023-10-10T00:42:08.908Z,0.00
2023-10-10T00:43:09.614Z,0.00
2023-10-10T00:44:10.378Z,0.00
2023-10-10T00:45:11.055Z,0.00
2023-10-10T00:46:12.189Z,0.00
2023-10-10T00:47:12.504Z,0.00
2023-10-10T00:48:13.283Z,0.00
2023-10-10T00:49:14.106Z,0.00
2023-10-10T00:50:14.920Z,0.00
2023-10-10T00:51:15.693Z,0.00
2023-10-10T00:52:16.449Z,0.00
2023-10-10T00:53:17.196Z,0.00
2023-10-10T00:54:17.882Z,0.00
2023-10-10T00:55:18.585Z,0.00
2023-10-10T00:56:19.740Z,0.00
2023-10-10T00:57:19.957Z,0.00
2023-10-10T00:58:20.657Z,0.00
2023-10-10T00:59:21.431Z,0.00
2023-10-10T01:00:22.078Z,0.00
2023-10-10T01:01:23.217Z,0.00
2023-10-10T01:02:23.525Z,0.00
2023-10-10T01:03:24.675Z,0.00
2023-10-10T01:04:25.058Z,0.00
2023-10-10T01:05:25.794Z,0.00
2023-10-10T01:06:26.697Z,0.00
2023-10-10T01:07:27.476Z,0.00
2023-10-10T01:08:28.457Z,0.00
2023-10-10T01:09:28.810Z,0.00
2023-10-10T01:10:29.520Z,0.00
2023-10-10T01:11:30.785Z,0.00
2023-10-10T01:12:30.984Z,0.00
2023-10-10T01:13:31.811Z,0.00
2023-10-10T01:14:32.689Z,0.00
2023-10-10T01:15:33.362Z,0.00
2023-10-10T01:16:34.234Z,0.00
2023-10-10T01:17:34.990Z,0.00
2023-10-10T01:18:35.670Z,0.00
2023-10-10T01:19:36.391Z,0.00
2023-10-10T01:20:37.115Z,0.00
2023-10-10T01:21:38.210Z,0.00
2023-10-10T01:22:38.460Z,0.00
2023-10-10T01:23:39.143Z,0.00
2023-10-10T01:24:39.803Z,0.00
2023-10-10T01:25:40.515Z,0.00
2023-10-10T01:26:41.697Z,0.00
2023-10-10T01:27:41.905Z,0.00
2023-10-10T01:28:42.621Z,0.00
2023-10-10T01:29:43.344Z,0.00
2023-10-10T01:30:44.064Z,0.00
2023-10-10T01:31:45.196Z,0.00
2023-10-10T01:32:45.448Z,0.00
2023-10-10T01:33:46.124Z,0.00
2023-10-10T01:34:46.830Z,0.00
2023-10-10T01:35:47.547Z,0.00
2023-10-10T01:36:48.699Z,0.00
2023-10-10T01:37:48.956Z,0.00
2023-10-10T01:38:49.597Z,0.00
2023-10-10T01:39:50.310Z,0.00
2023-10-10T01:40:51.014Z,0.00
2023-10-10T01:41:52.199Z,0.00
2023-10-10T01:42:52.403Z,0.00
2023-10-10T01:43:53.111Z,0.00
2023-10-10T01:44:53.994Z,0.00
2023-10-10T01:45:54.748Z,0.00
2023-10-10T01:46:55.957Z,0.00
2023-10-10T01:47:56.366Z,0.00
2023-10-10T01:48:57.045Z,0.00
2023-10-10T01:49:57.781Z,0.00
2023-10-10T01:50:58.466Z,0.00
2023-10-10T01:51:59.199Z,0.00
2023-10-10T01:52:59.996Z,0.00
2023-10-10T01:54:00.666Z,0.00
2023-10-10T01:55:01.400Z,0.00
2023-10-10T01:56:02.091Z,0.00
2023-10-10T01:57:03.198Z,0.00
2023-10-10T01:58:03.421Z,0.00
2023-10-10T01:59:04.141Z,0.00
2023-10-10T02:00:04.862Z,0.00
2023-10-10T02:01:05.536Z,0.00
2023-10-10T02:02:06.739Z,0.00
2023-10-10T02:03:07.029Z,0.00
2023-10-10T02:04:07.740Z,0.00
2023-10-10T02:05:08.439Z,0.00
2023-10-10T02:06:09.138Z,0.00
2023-10-10T02:07:10.200Z,0.00
2023-10-10T02:08:10.494Z,0.00
2023-10-10T02:09:11.254Z,0.00
2023-10-10T02:10:11.955Z,0.00
2023-10-10T02:11:12.717Z,0.00
2023-10-10T02:12:13.738Z,0.00
2023-10-10T02:13:14.429Z,0.00
2023-10-10T02:14:15.168Z,0.00
2023-10-10T02:15:15.841Z,0.00
2023-10-10T02:16:16.587Z,0.00
2023-10-10T02:17:17.756Z,0.00
2023-10-10T02:18:17.976Z,0.00
2023-10-10T02:19:18.648Z,0.00
2023-10-10T02:20:19.407Z,0.00
2023-10-10T02:21:20.155Z,0.00
2023-10-10T02:22:21.210Z,0.00
2023-10-10T02:23:21.491Z,0.00
2023-10-10T02:24:22.248Z,0.00
2023-10-10T02:25:22.956Z,0.00
2023-10-10T02:26:23.700Z,0.00
2023-10-10T02:27:24.718Z,0.00
2023-10-10T02:28:24.921Z,0.00
2023-10-10T02:29:25.743Z,0.00
2023-10-10T02:30:26.585Z,0.00
2023-10-10T02:31:27.261Z,0.00
2023-10-10T02:32:28.276Z,0.00
2023-10-10T02:33:28.509Z,0.00
2023-10-10T02:34:29.218Z,0.00
2023-10-10T02:35:29.979Z,0.00
2023-10-10T02:36:30.635Z,0.00
2023-10-10T02:37:31.726Z,0.00
2023-10-10T02:38:32.012Z,0.00
2023-10-10T02:39:32.671Z,0.00
2023-10-10T02:40:33.371Z,0.00
2023-10-10T02:41:34.163Z,0.00
2023-10-10T02:42:35.228Z,0.00
2023-10-10T02:43:35.431Z,0.00
2023-10-10T02:44:36.177Z,0.00
2023-10-10T02:45:36.848Z,0.00
2023-10-10T02:46:37.931Z,0.00
2023-10-10T02:47:38.817Z,0.00
2023-10-10T02:48:39.045Z,0.00
2023-10-10T02:49:39.760Z,0.00
2023-10-10T02:50:40.464Z,0.00
2023-10-10T02:51:41.168Z,0.00
2023-10-10T02:52:42.218Z,0.00
2023-10-10T02:53:42.476Z,0.00
2023-10-10T02:54:43.115Z,0.00
2023-10-10T02:55:43.821Z,0.00
2023-10-10T02:56:44.542Z,0.00
2023-10-10T02:57:45.708Z,0.00
2023-10-10T02:58:45.919Z,0.00
2023-10-10T02:59:46.624Z,0.00
2023-10-10T03:00:47.324Z,0.00
2023-10-10T03:01:48.126Z,0.00
2023-10-10T03:02:49.373Z,0.00
2023-10-10T03:03:49.692Z,0.00
2023-10-10T03:04:50.384Z,0.00
2023-10-10T03:05:51.089Z,0.00
2023-10-10T03:06:51.799Z,0.00
2023-10-10T03:07:52.733Z,0.00
2023-10-10T03:08:53.469Z,0.00
2023-10-10T03:09:54.100Z,0.00
2023-10-10T03:10:55.101Z,0.00
2023-10-10T03:11:55.567Z,0.00
2023-10-10T03:12:56.730Z,0.00
2023-10-10T03:13:57.011Z,0.00
2023-10-10T03:14:57.707Z,0.00
2023-10-10T03:15:58.429Z,0.00
2023-10-10T03:16:59.159Z,0.00
2023-10-10T03:18:00.256Z,0.00
2023-10-10T03:19:00.427Z,0.00
2023-10-10T03:20:01.149Z,0.00
2023-10-10T03:21:01.837Z,0.00
2023-10-10T03:22:02.543Z,0.00
2023-10-10T03:23:03.739Z,0.00
2023-10-10T03:24:03.980Z,0.00
2023-10-10T03:25:04.633Z,0.00
2023-10-10T03:26:05.390Z,0.00
2023-10-10T03:27:06.073Z,0.00
2023-10-10T03:28:07.213Z,0.00
2023-10-10T03:29:07.447Z,0.00
2023-10-10T03:30:08.118Z,0.00
2023-10-10T03:31:08.825Z,0.00
2023-10-10T03:32:22.403Z,0.00
2023-10-10T03:33:10.438Z,0.00
2023-10-10T03:34:10.770Z,0.00
2023-10-10T03:35:11.518Z,0.00
2023-10-10T03:36:12.187Z,0.00
2023-10-10T03:37:12.897Z,0.00
2023-10-10T03:38:13.729Z,0.00
2023-10-10T03:39:14.764Z,0.00
2023-10-10T03:40:15.062Z,0.00
2023-10-10T03:41:15.821Z,0.00
2023-10-10T03:42:16.472Z,0.00
2023-10-10T03:43:17.226Z,0.00
2023-10-10T03:44:17.980Z,0.00
2023-10-10T03:45:18.656Z,0.00
2023-10-10T03:46:19.371Z,0.00
2023-10-10T03:47:20.110Z,0.00
2023-10-10T03:48:21.252Z,0.00
2023-10-10T03:49:21.464Z,0.00
2023-10-10T03:50:22.206Z,0.00
2023-10-10T03:51:22.888Z,0.00
2023-10-10T03:52:23.587Z,0.00
2023-10-10T03:53:24.459Z,0.00
2023-10-10T03:54:25.279Z,0.00
2023-10-10T03:55:25.906Z,0.00
2023-10-10T03:56:26.648Z,0.00
2023-10-10T03:57:27.323Z,0.00
2023-10-10T03:58:28.222Z,0.00
2023-10-10T03:59:29.087Z,0.00
2023-10-10T04:00:29.846Z,0.00
2023-10-10T04:01:30.555Z,0.00
2023-10-10T04:02:31.329Z,0.00
2023-10-10T04:03:32.119Z,0.00
2023-10-10T04:04:32.830Z,0.00
2023-10-10T04:05:33.603Z,0.00
2023-10-10T04:06:34.249Z,0.00
2023-10-10T04:07:34.954Z,0.00
2023-10-10T04:08:35.689Z,0.00
2023-10-10T04:09:36.424Z,0.00
2023-10-10T04:10:37.069Z,0.00
2023-10-10T04:11:37.868Z,0.00
2023-10-10T04:12:38.570Z,0.00
2023-10-10T04:13:39.301Z,0.00
2023-10-10T04:14:40.051Z,0.00
2023-10-10T04:15:40.794Z,0.00
2023-10-10T04:16:41.567Z,0.00
2023-10-10T04:17:42.404Z,0.00
2023-10-10T04:18:43.232Z,0.00
2023-10-10T04:19:43.936Z,0.00
2023-10-10T04:20:44.723Z,0.00
2023-10-10T04:21:45.444Z,0.00
2023-10-10T04:22:46.149Z,0.00
2023-10-10T04:23:47.228Z,0.00
2023-10-10T04:24:47.477Z,0.00
2023-10-10T04:25:48.109Z,0.00
2023-10-10T04:26:48.815Z,0.00
2023-10-10T04:27:49.518Z,0.00
2023-10-10T04:28:50.731Z,0.00
2023-10-10T04:29:50.934Z,0.00
2023-10-10T04:30:51.640Z,0.00
2023-10-10T04:31:52.390Z,0.00
2023-10-10T04:32:53.159Z,0.00
2023-10-10T04:33:54.230Z,0.00
2023-10-10T04:34:54.433Z,0.00
2023-10-10T04:35:55.141Z,0.00
2023-10-10T04:36:55.891Z,0.00
2023-10-10T04:37:56.563Z,0.00
2023-10-10T04:38:57.729Z,0.00
2023-10-10T04:39:57.994Z,0.00
2023-10-10T04:40:58.659Z,0.00
2023-10-10T04:41:59.383Z,0.00
2023-10-10T04:43:00.092Z,0.00
2023-10-10T04:44:01.358Z,0.00
2023-10-10T04:45:01.601Z,0.00
2023-10-10T04:46:02.325Z,0.00
2023-10-10T04:47:03.052Z,0.00
2023-10-10T04:48:03.749Z,0.00
2023-10-10T04:49:04.732Z,0.00
2023-10-10T04:50:04.985Z,0.00
2023-10-10T04:51:05.665Z,0.00
2023-10-10T04:52:06.371Z,0.00
2023-10-10T04:53:07.136Z,0.00
2023-10-10T04:54:08.230Z,0.00
2023-10-10T04:55:08.477Z,0.00
2023-10-10T04:56:09.178Z,0.00
2023-10-10T04:57:11.293Z,0.00
2023-10-10T04:58:10.508Z,0.00
2023-10-10T04:59:11.222Z,0.00
2023-10-10T05:00:11.937Z,0.00
2023-10-10T05:01:12.685Z,0.00
2023-10-10T05:02:13.429Z,0.00
2023-10-10T05:03:14.156Z,0.00
2023-10-10T05:04:15.701Z,0.00
2023-10-10T05:05:15.643Z,0.00
2023-10-10T05:06:16.349Z,0.00
2023-10-10T05:07:17.056Z,0.00
2023-10-10T05:08:17.823Z,0.00
2023-10-10T05:09:18.735Z,0.00
2023-10-10T05:10:19.491Z,0.00
2023-10-10T05:11:20.192Z,0.00
2023-10-10T05:12:20.869Z,0.00
2023-10-10T05:13:21.562Z,0.00
2023-10-10T05:14:22.765Z,68.00
2023-10-10T05:15:22.959Z,0.00
2023-10-10T05:16:23.695Z,0.00
2023-10-10T05:17:24.404Z,4.00
2023-10-10T05:18:25.124Z,4.00
2023-10-10T05:19:26.230Z,4.00
2023-10-10T05:20:26.480Z,4.00
2023-10-10T05:21:27.172Z,4.00
2023-10-10T05:22:27.892Z,8.00
2023-10-10T05:23:28.650Z,4.00
2023-10-10T05:24:29.734Z,8.00
2023-10-10T05:25:29.988Z,8.00
2023-10-10T05:26:30.660Z,12.00
2023-10-10T05:27:31.361Z,12.00
2023-10-10T05:28:32.083Z,16.00
2023-10-10T05:29:33.243Z,20.00
2023-10-10T05:30:33.440Z,24.00
2023-10-10T05:31:34.232Z,28.00
2023-10-10T05:32:34.972Z,32.00
2023-10-10T05:33:35.686Z,36.00
2023-10-10T05:34:36.436Z,44.00
2023-10-10T05:35:37.146Z,52.00
2023-10-10T05:36:37.815Z,56.00
2023-10-10T05:37:38.524Z,68.00
2023-10-10T05:38:39.255Z,72.00
2023-10-10T05:39:40.241Z,84.00
2023-10-10T05:40:40.488Z,92.00
2023-10-10T05:41:41.160Z,100.00
2023-10-10T05:42:41.863Z,112.00
2023-10-10T05:43:42.576Z,124.00
2023-10-10T05:44:43.754Z,140.00
2023-10-10T05:45:44.040Z,156.00
2023-10-10T05:46:44.695Z,176.00
2023-10-10T05:47:45.531Z,196.00
2023-10-10T05:48:46.240Z,216.00
2023-10-10T05:49:46.953Z,240.00
2023-10-10T05:50:47.672Z,268.00
2023-10-10T05:51:48.374Z,292.00
2023-10-10T05:52:49.081Z,324.00
2023-10-10T05:53:49.791Z,352.00
2023-10-10T05:54:50.740Z,388.00
2023-10-10T05:55:51.582Z,420.00
2023-10-10T05:56:52.296Z,456.00
2023-10-10T05:57:53.015Z,496.00
2023-10-10T05:58:55.201Z,540.00
2023-10-10T05:59:54.744Z,580.00
2023-10-10T06:00:55.485Z,624.00
2023-10-10T06:01:56.174Z,672.00
2023-10-10T06:02:56.950Z,720.00
2023-10-10T06:03:57.624Z,772.00
2023-10-10T06:04:58.746Z,828.00
2023-10-10T06:05:58.960Z,884.00
2023-10-10T06:06:59.663Z,940.00
2023-10-10T06:08:00.381Z,996.00
2023-10-10T06:09:01.082Z,1052.00
2023-10-10T06:10:02.241Z,1120.00
2023-10-10T06:11:02.594Z,1196.00
2023-10-10T06:12:03.316Z,1284.00
2023-10-10T06:13:04.024Z,1384.00
2023-10-10T06:14:04.851Z,1488.00
2023-10-10T06:15:05.553Z,1596.00
2023-10-10T06:16:06.315Z,1692.00
2023-10-10T06:17:07.018Z,1764.00
2023-10-10T06:18:07.728Z,1816.00
2023-10-10T06:19:08.479Z,1868.00
2023-10-10T06:20:09.227Z,1904.00
2023-10-10T06:21:10.640Z,1944.00
2023-10-10T06:22:10.877Z,2000.00
2023-10-10T06:23:11.609Z,2060.00
2023-10-10T06:24:12.281Z,2108.00
2023-10-10T06:25:12.992Z,2152.00
2023-10-10T06:26:13.973Z,2204.00
2023-10-10T06:27:14.420Z,2264.00
2023-10-10T06:28:15.125Z,2332.00
2023-10-10T06:29:15.839Z,2404.00
2023-10-10T06:30:16.541Z,2488.00
2023-10-10T06:31:17.285Z,2568.00
2023-10-10T06:32:17.982Z,2648.00
2023-10-10T06:33:18.728Z,2720.00
2023-10-10T06:34:19.495Z,2784.00
2023-10-10T06:35:20.277Z,2856.00
2023-10-10T06:36:20.970Z,2932.00
2023-10-10T06:37:21.662Z,2980.00
2023-10-10T06:38:22.420Z,3020.00
2023-10-10T06:39:23.079Z,3056.00
2023-10-10T06:40:24.255Z,3088.00
2023-10-10T06:41:24.527Z,3124.00
2023-10-10T06:42:25.211Z,3180.00
2023-10-10T06:43:25.921Z,3264.00
2023-10-10T06:44:26.694Z,3348.00
2023-10-10T06:45:27.762Z,3376.00
2023-10-10T06:46:27.956Z,3416.00
2023-10-10T06:47:28.762Z,3536.00
2023-10-10T06:48:29.483Z,3576.00
2023-10-10T06:49:30.180Z,3536.00
2023-10-10T06:50:31.250Z,3516.00
2023-10-10T06:51:31.462Z,3532.00
2023-10-10T06:52:32.168Z,3552.00
2023-10-10T06:53:32.924Z,3564.00
2023-10-10T06:54:33.584Z,3636.00
2023-10-10T06:55:34.762Z,3776.00
2023-10-10T06:56:35.140Z,3880.00
2023-10-10T06:57:36.396Z,3932.00
2023-10-10T06:58:36.369Z,4016.00
2023-10-10T06:59:37.105Z,4112.00
2023-10-10T07:00:37.841Z,4164.00
2023-10-10T07:01:38.526Z,4208.00
2023-10-10T07:02:39.436Z,4292.00
2023-10-10T07:03:40.233Z,4428.00
2023-10-10T07:04:40.976Z,4612.00
2023-10-10T07:05:41.707Z,4812.00
2023-10-10T07:06:42.386Z,4856.00
2023-10-10T07:07:43.094Z,4976.00
2023-10-10T07:08:43.889Z,5196.00
2023-10-10T07:09:44.582Z,5456.00
2023-10-10T07:10:45.758Z,5504.00
2023-10-10T07:11:46.023Z,5564.00
2023-10-10T07:12:46.664Z,5688.00
2023-10-10T07:13:47.375Z,5784.00
2023-10-10T07:14:48.353Z,5980.00
2023-10-10T07:15:48.819Z,6248.00
2023-10-10T07:16:49.482Z,6364.00
2023-10-10T07:17:50.260Z,6328.00
2023-10-10T07:18:50.954Z,6472.00
2023-10-10T07:19:51.661Z,6532.00
2023-10-10T07:20:52.758Z,6304.00
2023-10-10T07:21:53.479Z,6572.00
2023-10-10T07:22:54.189Z,6716.00
2023-10-10T07:23:54.900Z,6640.00
2023-10-10T07:24:55.659Z,6232.00
2023-10-10T07:25:56.753Z,5752.00
2023-10-10T07:26:57.009Z,5384.00
2023-10-10T07:27:57.653Z,5524.00
2023-10-10T07:28:58.352Z,5688.00
2023-10-10T07:29:59.070Z,5712.00
2023-10-10T07:30:59.801Z,6152.00
2023-10-10T07:32:00.476Z,6628.00
2023-10-10T07:33:01.253Z,7264.00
2023-10-10T07:34:01.947Z,7572.00
2023-10-10T07:35:02.656Z,8372.00
2023-10-10T07:36:03.382Z,8360.00
2023-10-10T07:37:04.089Z,8484.00
2023-10-10T07:38:04.795Z,9056.00
2023-10-10T07:39:05.514Z,9416.00
2023-10-10T07:40:06.208Z,9492.00
2023-10-10T07:41:06.938Z,9688.00
2023-10-10T07:42:07.702Z,9492.00
2023-10-10T07:43:08.384Z,10028.00
2023-10-10T07:44:09.086Z,10660.00
2023-10-10T07:45:09.797Z,11116.00
2023-10-10T07:46:10.894Z,11524.00
2023-10-10T07:47:11.860Z,12224.00
2023-10-10T07:48:11.778Z,13172.00
2023-10-10T07:49:12.520Z,14816.00
2023-10-10T07:50:13.241Z,15200.00
2023-10-10T07:51:14.266Z,16192.00
2023-10-10T07:52:14.472Z,16224.00
2023-10-10T07:53:15.191Z,16128.00
2023-10-10T07:54:16.056Z,16128.00
2023-10-10T07:55:16.841Z,16832.00
2023-10-10T07:56:17.562Z,15168.00
2023-10-10T07:57:18.323Z,17216.00
2023-10-10T07:58:19.025Z,16544.00
2023-10-10T07:59:19.774Z,19680.00
2023-10-10T08:00:20.423Z,20256.00
2023-10-10T08:01:21.320Z,20256.00
2023-10-10T08:02:22.141Z,20224.00
2023-10-10T08:03:22.899Z,22176.00
2023-10-10T08:04:23.873Z,22624.00
2023-10-10T08:05:24.330Z,22752.00
2023-10-10T08:06:25.024Z,22816.00
2023-10-10T08:07:25.729Z,23520.00
2023-10-10T08:08:26.495Z,24448.00
2023-10-10T08:09:27.182Z,24576.00
2023-10-10T08:10:27.883Z,24032.00
2023-10-10T08:11:28.649Z,21216.00
2023-10-10T08:12:29.368Z,20448.00
2023-10-10T08:13:30.041Z,20128.00
2023-10-10T08:14:30.812Z,20544.00
2023-10-10T08:15:31.462Z,21120.00
2023-10-10T08:16:32.208Z,20768.00
2023-10-10T08:17:32.950Z,24416.00
2023-10-10T08:18:33.707Z,26496.00
2023-10-10T08:19:34.370Z,25280.00
2023-10-10T08:20:35.293Z,25440.00
2023-10-10T08:21:36.040Z,23776.00
2023-10-10T08:22:36.747Z,23392.00
2023-10-10T08:23:37.530Z,23008.00
2023-10-10T08:24:38.191Z,21056.00
2023-10-10T08:25:38.921Z,22080.00
2023-10-10T08:26:39.653Z,21248.00
2023-10-10T08:27:40.365Z,21376.00
2023-10-10T08:28:40.999Z,19808.00
2023-10-10T08:29:41.951Z,17536.00
2023-10-10T08:30:42.653Z,15624.00
2023-10-10T08:31:43.349Z,16384.00
2023-10-10T08:32:44.126Z,17152.00
2023-10-10T08:33:44.803Z,15892.00
2023-10-10T08:34:45.506Z,14492.00
2023-10-10T08:35:48.637Z,14424.00
2023-10-10T08:36:47.000Z,15176.00
2023-10-10T08:37:47.707Z,15704.00
2023-10-10T08:38:48.453Z,14984.00
2023-10-10T08:39:49.156Z,15024.00
2023-10-10T08:40:49.867Z,15632.00
2023-10-10T08:41:50.775Z,15936.00
2023-10-10T08:42:51.541Z,15648.00
2023-10-10T08:43:52.188Z,15720.00
2023-10-10T08:44:52.912Z,15960.00
2023-10-10T08:45:53.623Z,15700.00
2023-10-10T08:46:54.813Z,14448.00
2023-10-10T08:47:55.081Z,15188.00
2023-10-10T08:48:55.773Z,15248.00
2023-10-10T08:49:56.505Z,14896.00
2023-10-10T08:50:57.200Z,14800.00
2023-10-10T08:51:58.277Z,14048.00
2023-10-10T08:52:58.487Z,14128.00
2023-10-10T08:53:59.266Z,14404.00
2023-10-10T08:54:59.970Z,14472.00
2023-10-10T08:56:00.669Z,14172.00
2023-10-10T08:57:02.300Z,14940.00
2023-10-10T08:58:02.181Z,14900.00
2023-10-10T08:59:02.814Z,20672.00
2023-10-10T09:00:03.628Z,22752.00
2023-10-10T09:01:04.320Z,22912.00
2023-10-10T09:02:05.021Z,23104.00
2023-10-10T09:03:05.825Z,21440.00
2023-10-10T09:04:06.643Z,24448.00
2023-10-10T09:05:07.357Z,24800.00
2023-10-10T09:06:08.024Z,25120.00
2023-10-10T09:07:08.740Z,26656.00
2023-10-10T09:08:09.445Z,23328.00
2023-10-10T09:09:10.141Z,30336.00
2023-10-10T09:10:10.843Z,30208.00
2023-10-10T09:11:11.617Z,29568.00
2023-10-10T09:12:12.287Z,29504.00
2023-10-10T09:13:13.037Z,30144.00
2023-10-10T09:14:13.730Z,29760.00
2023-10-10T09:15:14.399Z,29984.00
2023-10-10T09:16:15.148Z,29120.00
2023-10-10T09:17:16.365Z,29952.00
2023-10-10T09:18:16.534Z,31776.00
2023-10-10T09:19:17.608Z,33312.00
2023-10-10T09:20:17.942Z,33792.00
2023-10-10T09:21:18.636Z,35392.00
2023-10-10T09:22:19.342Z,35648.00
2023-10-10T09:23:20.063Z,35552.00
2023-10-10T09:24:20.773Z,36864.00
2023-10-10T09:25:21.468Z,37280.00
2023-10-10T09:26:22.204Z,37216.00
2023-10-10T09:27:23.279Z,37472.00
2023-10-10T09:28:23.546Z,37760.00
2023-10-10T09:29:24.222Z,38304.00
2023-10-10T09:30:24.950Z,37696.00
2023-10-10T09:31:25.660Z,35776.00
2023-10-10T09:32:26.827Z,37664.00
2023-10-10T09:33:27.051Z,39776.00
2023-10-10T09:34:27.730Z,37952.00
2023-10-10T09:35:28.520Z,33376.00
2023-10-10T09:36:29.189Z,33536.00
2023-10-10T09:37:30.285Z,36416.00
2023-10-10T09:38:30.567Z,37152.00
2023-10-10T09:39:31.229Z,35648.00
2023-10-10T09:40:31.938Z,34144.00
2023-10-10T09:41:32.675Z,33696.00
2023-10-10T09:42:33.361Z,32160.00
2023-10-10T09:43:34.119Z,33632.00
2023-10-10T09:44:34.805Z,36512.00
2023-10-10T09:45:35.462Z,36256.00
2023-10-10T09:46:36.229Z,34816.00
2023-10-10T09:47:37.063Z,35776.00
2023-10-10T09:48:37.777Z,37856.00
2023-10-10T09:49:38.501Z,35456.00
2023-10-10T09:50:39.459Z,33152.00
2023-10-10T09:51:40.140Z,31872.00
2023-10-10T09:52:40.955Z,31168.00
2023-10-10T09:53:41.775Z,29440.00
2023-10-10T09:54:42.444Z,32288.00
2023-10-10T09:55:43.151Z,32160.00
2023-10-10T09:56:43.895Z,34656.00
2023-10-10T09:57:44.590Z,33440.00
2023-10-10T09:58:45.375Z,38272.00
2023-10-10T09:59:46.055Z,35104.00
2023-10-10T10:00:46.747Z,33056.00
2023-10-10T10:01:47.555Z,32640.00
2023-10-10T10:02:48.338Z,31872.00
2023-10-10T10:03:49.027Z,30816.00
2023-10-10T10:04:49.853Z,31424.00
2023-10-10T10:05:50.643Z,31456.00
2023-10-10T10:07:04.456Z,33408.00
2023-10-10T10:07:52.935Z,34048.00
2023-10-10T10:08:52.669Z,32608.00
2023-10-10T10:09:53.366Z,35808.00
2023-10-10T10:10:54.070Z,34496.00
2023-10-10T10:11:54.778Z,31744.00
2023-10-10T10:12:55.501Z,30368.00
2023-10-10T10:14:08.554Z,26880.00
2023-10-10T10:14:57.871Z,25408.00
2023-10-10T10:15:57.545Z,27904.00
2023-10-10T10:16:58.232Z,27744.00
2023-10-10T10:17:59.017Z,24480.00
2023-10-10T10:18:59.683Z,25408.00
2023-10-10T10:20:00.402Z,26304.00
2023-10-10T10:21:01.098Z,26560.00
2023-10-10T10:22:01.819Z,26496.00
2023-10-10T10:23:02.548Z,24960.00
2023-10-10T10:24:03.252Z,24480.00
2023-10-10T10:25:03.957Z,24512.00
2023-10-10T10:26:04.675Z,23552.00
2023-10-10T10:27:05.380Z,22656.00
2023-10-10T10:28:06.296Z,21984.00
2023-10-10T10:29:07.058Z,21824.00
2023-10-10T10:30:07.699Z,21440.00
2023-10-10T10:31:08.400Z,21184.00
2023-10-10T10:32:09.131Z,20768.00
2023-10-10T10:33:09.901Z,20384.00
2023-10-10T10:34:10.624Z,19360.00
2023-10-10T10:35:11.352Z,19008.00
2023-10-10T10:36:12.052Z,19904.00
2023-10-10T10:37:12.744Z,19616.00
2023-10-10T10:38:13.904Z,20704.00
2023-10-10T10:39:15.699Z,20416.00
2023-10-10T10:40:14.900Z,20192.00
2023-10-10T10:41:15.645Z,20448.00
2023-10-10T10:42:16.313Z,20128.00
2023-10-10T10:43:17.360Z,20032.00
2023-10-10T10:44:18.337Z,19264.00
2023-10-10T10:45:18.587Z,19392.00
2023-10-10T10:46:21.531Z,19936.00
2023-10-10T10:47:19.991Z,21408.00
2023-10-10T10:48:20.874Z,19712.00
2023-10-10T10:49:21.572Z,20384.00
2023-10-10T10:50:22.306Z,20992.00
2023-10-10T10:51:22.980Z,23168.00
2023-10-10T10:52:23.687Z,26240.00
2023-10-10T10:53:24.442Z,26816.00
2023-10-10T10:54:25.200Z,26976.00
2023-10-10T10:55:25.899Z,27904.00
2023-10-10T10:56:26.631Z,27360.00
2023-10-10T10:57:35.744Z,26784.00
2023-10-10T10:58:29.309Z,25920.00
2023-10-10T10:59:28.701Z,26080.00
2023-10-10T11:00:29.438Z,25792.00
2023-10-10T11:01:30.173Z,25664.00
2023-10-10T11:02:30.970Z,27520.00
2023-10-10T11:03:31.816Z,27328.00
2023-10-10T11:04:32.546Z,29792.00
2023-10-10T11:05:33.364Z,29568.00
2023-10-10T11:06:34.034Z,28864.00
2023-10-10T11:07:34.743Z,32288.00
2023-10-10T11:08:46.203Z,35456.00
2023-10-10T11:09:37.414Z,34752.00
2023-10-10T11:10:37.128Z,33024.00
2023-10-10T11:11:38.093Z,33728.00
2023-10-10T11:12:38.704Z,36896.00
2023-10-10T11:13:39.417Z,34336.00
2023-10-10T11:14:40.278Z,37664.00
2023-10-10T11:15:40.922Z,39328.00
2023-10-10T11:16:41.627Z,41344.00
2023-10-10T11:17:42.403Z,41696.00
2023-10-10T11:18:43.118Z,47424.00
2023-10-10T11:19:43.783Z,45504.00
2023-10-10T11:20:44.564Z,48256.00
2023-10-10T11:21:45.230Z,48352.00
2023-10-10T11:22:45.933Z,47808.00
2023-10-10T11:23:46.700Z,51840.00
2023-10-10T11:24:47.353Z,51040.00
2023-10-10T11:25:48.081Z,48512.00
2023-10-10T11:26:48.803Z,53952.00
2023-10-10T11:27:49.488Z,54624.00
2023-10-10T11:28:50.202Z,56640.00
2023-10-10T11:29:51.006Z,55296.00
2023-10-10T11:30:51.657Z,52384.00
2023-10-10T11:31:52.376Z,54784.00
2023-10-10T11:32:53.120Z,61120.00
2023-10-10T11:33:53.821Z,56992.00
2023-10-10T11:34:54.528Z,58272.00
2023-10-10T11:35:55.248Z,58208.00
2023-10-10T11:36:55.964Z,58144.00
2023-10-10T11:37:56.645Z,57856.00
2023-10-10T11:38:57.573Z,56256.00
2023-10-10T11:39:58.432Z,52352.00
2023-10-10T11:40:59.214Z,51584.00
2023-10-10T11:41:59.905Z,52864.00
2023-10-10T11:43:00.616Z,51200.00
2023-10-10T11:44:01.333Z,55744.00
2023-10-10T11:45:02.419Z,55776.00
2023-10-10T11:46:02.741Z,55200.00
2023-10-10T11:47:03.424Z,52096.00
2023-10-10T11:48:04.200Z,52704.00
2023-10-10T11:49:05.321Z,52448.00
2023-10-10T11:50:05.550Z,51616.00
2023-10-10T11:51:06.287Z,51488.00
2023-10-10T11:52:06.985Z,50624.00
2023-10-10T11:53:07.692Z,49664.00
2023-10-10T11:54:08.646Z,49504.00
2023-10-10T11:55:09.344Z,49856.00
2023-10-10T11:56:10.037Z,51264.00
2023-10-10T11:57:10.756Z,51456.00
2023-10-10T11:58:11.461Z,49792.00
2023-10-10T11:59:12.175Z,46080.00
2023-10-10T12:00:24.329Z,41152.00
2023-10-10T12:01:14.520Z,36000.00
2023-10-10T12:02:14.251Z,30816.00
2023-10-10T12:03:15.033Z,25664.00
2023-10-10T12:04:15.994Z,19360.00
2023-10-10T12:05:16.375Z,15040.00
2023-10-10T12:06:17.082Z,14224.00
2023-10-10T12:07:17.760Z,13816.00
2023-10-10T12:08:18.508Z,12796.00
2023-10-10T12:09:19.217Z,12744.00
2023-10-10T12:10:19.927Z,12896.00
2023-10-10T12:11:20.696Z,12532.00
2023-10-10T12:12:22.860Z,12764.00
2023-10-10T12:13:22.101Z,13280.00
2023-10-10T12:14:22.837Z,12760.00
2023-10-10T12:15:23.596Z,12476.00
2023-10-10T12:16:24.277Z,12100.00
2023-10-10T12:17:25.027Z,11764.00
2023-10-10T12:18:25.799Z,11724.00
2023-10-10T12:19:26.490Z,12072.00
2023-10-10T12:20:27.236Z,12684.00
2023-10-10T12:21:27.913Z,13536.00
2023-10-10T12:22:28.621Z,13844.00
2023-10-10T12:23:29.363Z,12244.00
2023-10-10T12:24:30.036Z,10720.00
2023-10-10T12:25:30.740Z,10260.00
2023-10-10T12:26:32.220Z,10088.00
2023-10-10T12:27:32.068Z,10072.00
2023-10-10T12:28:32.771Z,10060.00
2023-10-10T12:29:33.498Z,10132.00
2023-10-10T12:30:34.305Z,10448.00
2023-10-10T12:31:35.095Z,10732.00
2023-10-10T12:32:35.879Z,12388.00
2023-10-10T12:33:36.578Z,24064.00
2023-10-10T12:34:37.285Z,38368.00
2023-10-10T12:35:38.008Z,41024.00
2023-10-10T12:36:38.696Z,40736.00